sensor_id;sensor_type;location;lat;lon;timestamp;P1;durP1;ratioP1;P2;durP2;ratioP2
7479;SDS011;3781;42.272;22.658;2023-10-31T00:01:31;0.70;;;0.63;;
7479;SDS011;3781;42.272;22.658;2023-10-31T00:03:58;0.93;;;0.60;;
7479;SDS011;3781;42.272;22.658;2023-10-31T00:06:26;1.50;;;0.50;;
7479;SDS011;3781;42.272;22.658;2023-10-31T00:08:53;0.27;;;0.27;;
7479;SDS011;3781;42.272;22.658;2023-10-31T00:11:20;0.83;;;0.70;;
7479;SDS011;3781;42.272;22.658;2023-10-31T00:13:47;0.20;;;0.20;;
7479;SDS011;3781;42.272;22.658;2023-10-31T00:16:13;0.23;;;0.23;;
7479;SDS011;3781;42.272;22.658;2023-10-31T00:18:40;0.47;;;0.43;;
7479;SDS011;3781;42.272;22.658;2023-10-31T00:21:07;0.40;;;0.40;;
7479;SDS011;3781;42.272;22.658;2023-10-31T00:23:35;0.17;;;0.17;;
7479;SDS011;3781;42.272;22.658;2023-10-31T00:26:09;0.50;;;0.50;;
7479;SDS011;3781;42.272;22.658;2023-10-31T00:28:35;3.23;;;1.23;;
7479;SDS011;3781;42.272;22.658;2023-10-31T00:31:02;0.70;;;0.70;;
7479;SDS011;3781;42.272;22.658;2023-10-31T00:33:30;0.70;;;0.70;;
7479;SDS011;3781;42.272;22.658;2023-10-31T00:35:57;0.67;;;0.67;;
7479;SDS011;3781;42.272;22.658;2023-10-31T00:38:23;0.47;;;0.47;;
7479;SDS011;3781;42.272;22.658;2023-10-31T00:40:52;2.57;;;0.60;;
7479;SDS011;3781;42.272;22.658;2023-10-31T00:43:18;0.67;;;0.67;;
7479;SDS011;3781;42.272;22.658;2023-10-31T00:45:45;0.97;;;0.67;;
7479;SDS011;3781;42.272;22.658;2023-10-31T00:48:12;1.20;;;0.67;;
7479;SDS011;3781;42.272;22.658;2023-10-31T00:50:39;1.77;;;1.00;;
7479;SDS011;3781;42.272;22.658;2023-10-31T00:53:06;0.20;;;0.20;;
7479;SDS011;3781;42.272;22.658;2023-10-31T00:55:33;0.23;;;0.23;;
7479;SDS011;3781;42.272;22.658;2023-10-31T00:58:01;0.30;;;0.30;;
7479;SDS011;3781;42.272;22.658;2023-10-31T01:00:28;2.10;;;0.30;;
7479;SDS011;3781;42.272;22.658;2023-10-31T01:02:55;3.70;;;0.60;;
7479;SDS011;3781;42.272;22.658;2023-10-31T01:05:22;0.23;;;0.23;;
7479;SDS011;3781;42.272;22.658;2023-10-31T01:07:48;2.13;;;0.40;;
7479;SDS011;3781;42.272;22.658;2023-10-31T01:10:15;0.60;;;0.57;;
7479;SDS011;3781;42.272;22.658;2023-10-31T01:12:42;0.70;;;0.63;;
7479;SDS011;3781;42.272;22.658;2023-10-31T01:15:10;0.60;;;0.60;;
7479;SDS011;3781;42.272;22.658;2023-10-31T01:17:37;1.23;;;0.80;;
7479;SDS011;3781;42.272;22.658;2023-10-31T01:20:05;3.87;;;0.43;;
7479;SDS011;3781;42.272;22.658;2023-10-31T01:22:33;28.87;;;0.97;;
7479;SDS011;3781;42.272;22.658;2023-10-31T01:24:59;0.77;;;0.77;;
7479;SDS011;3781;42.272;22.658;2023-10-31T01:27:26;0.63;;;0.40;;
7479;SDS011;3781;42.272;22.658;2023-10-31T01:29:53;2.80;;;0.90;;
7479;SDS011;3781;42.272;22.658;2023-10-31T01:32:21;0.50;;;0.50;;
7479;SDS011;3781;42.272;22.658;2023-10-31T01:34:48;3.80;;;0.80;;
7479;SDS011;3781;42.272;22.658;2023-10-31T01:37:14;0.87;;;0.40;;
7479;SDS011;3781;42.272;22.658;2023-10-31T01:39:44;1.60;;;0.40;;
7479;SDS011;3781;42.272;22.658;2023-10-31T01:42:13;0.83;;;0.77;;
7479;SDS011;3781;42.272;22.658;2023-10-31T01:44:39;2.27;;;0.60;;
7479;SDS011;3781;42.272;22.658;2023-10-31T01:47:06;2.07;;;0.67;;
7479;SDS011;3781;42.272;22.658;2023-10-31T01:49:34;1.33;;;0.73;;
7479;SDS011;3781;42.272;22.658;2023-10-31T01:52:01;0.30;;;0.30;;
7479;SDS011;3781;42.272;22.658;2023-10-31T01:54:29;0.47;;;0.47;;
7479;SDS011;3781;42.272;22.658;2023-10-31T01:56:57;1.70;;;1.37;;
7479;SDS011;3781;42.272;22.658;2023-10-31T01:59:24;0.50;;;0.40;;
7479;SDS011;3781;42.272;22.658;2023-10-31T02:01:51;0.30;;;0.30;;
7479;SDS011;3781;42.272;22.658;2023-10-31T02:04:18;0.43;;;0.30;;
7479;SDS011;3781;42.272;22.658;2023-10-31T02:06:46;0.83;;;0.83;;
7479;SDS011;3781;42.272;22.658;2023-10-31T02:09:13;1.93;;;0.50;;
7479;SDS011;3781;42.272;22.658;2023-10-31T02:11:40;1.70;;;0.97;;
7479;SDS011;3781;42.272;22.658;2023-10-31T02:14:06;0.70;;;0.70;;
7479;SDS011;3781;42.272;22.658;2023-10-31T02:16:33;3.00;;;1.70;;
7479;SDS011;3781;42.272;22.658;2023-10-31T02:19:00;0.53;;;0.53;;
7479;SDS011;3781;42.272;22.658;2023-10-31T02:21:27;5.70;;;1.50;;
7479;SDS011;3781;42.272;22.658;2023-10-31T02:23:58;6.20;;;0.57;;
7479;SDS011;3781;42.272;22.658;2023-10-31T02:26:27;0.97;;;0.83;;
7479;SDS011;3781;42.272;22.658;2023-10-31T02:28:55;0.80;;;0.80;;
7479;SDS011;3781;42.272;22.658;2023-10-31T02:31:22;1.40;;;1.40;;
7479;SDS011;3781;42.272;22.658;2023-10-31T02:33:48;3.07;;;1.10;;
7479;SDS011;3781;42.272;22.658;2023-10-31T02:36:17;0.47;;;0.43;;
7479;SDS011;3781;42.272;22.658;2023-10-31T02:38:44;0.60;;;0.60;;
7479;SDS011;3781;42.272;22.658;2023-10-31T02:41:12;0.53;;;0.53;;
7479;SDS011;3781;42.272;22.658;2023-10-31T02:43:39;0.40;;;0.40;;
7479;SDS011;3781;42.272;22.658;2023-10-31T02:46:07;0.40;;;0.33;;
7479;SDS011;3781;42.272;22.658;2023-10-31T02:48:35;0.73;;;0.70;;
7479;SDS011;3781;42.272;22.658;2023-10-31T02:51:05;1.27;;;0.60;;
7479;SDS011;3781;42.272;22.658;2023-10-31T02:53:32;0.20;;;0.20;;
7479;SDS011;3781;42.272;22.658;2023-10-31T02:55:58;0.50;;;0.43;;
7479;SDS011;3781;42.272;22.658;2023-10-31T02:58:27;0.40;;;0.40;;
7479;SDS011;3781;42.272;22.658;2023-10-31T03:00:54;0.10;;;0.10;;
7479;SDS011;3781;42.272;22.658;2023-10-31T03:03:20;1.80;;;0.73;;
7479;SDS011;3781;42.272;22.658;2023-10-31T03:05:47;0.10;;;0.10;;
7479;SDS011;3781;42.272;22.658;2023-10-31T03:08:14;1.07;;;0.40;;
7479;SDS011;3781;42.272;22.658;2023-10-31T03:10:45;2.27;;;1.13;;
7479;SDS011;3781;42.272;22.658;2023-10-31T03:13:15;0.60;;;0.60;;
7479;SDS011;3781;42.272;22.658;2023-10-31T03:15:43;0.77;;;0.77;;
7479;SDS011;3781;42.272;22.658;2023-10-31T03:18:09;0.10;;;0.10;;
7479;SDS011;3781;42.272;22.658;2023-10-31T03:20:36;0.40;;;0.40;;
7479;SDS011;3781;42.272;22.658;2023-10-31T03:23:03;0.30;;;0.30;;
7479;SDS011;3781;42.272;22.658;2023-10-31T03:25:30;0.33;;;0.33;;
7479;SDS011;3781;42.272;22.658;2023-10-31T03:27:56;0.77;;;0.77;;
7479;SDS011;3781;42.272;22.658;2023-10-31T03:30:23;0.10;;;0.10;;
7479;SDS011;3781;42.272;22.658;2023-10-31T03:32:51;0.40;;;0.40;;
7479;SDS011;3781;42.272;22.658;2023-10-31T03:35:18;1.50;;;0.97;;
7479;SDS011;3781;42.272;22.658;2023-10-31T03:37:45;0.57;;;0.57;;
7479;SDS011;3781;42.272;22.658;2023-10-31T03:40:12;0.60;;;0.43;;
7479;SDS011;3781;42.272;22.658;2023-10-31T03:42:38;0.53;;;0.53;;
7479;SDS011;3781;42.272;22.658;2023-10-31T03:45:06;0.17;;;0.17;;
7479;SDS011;3781;42.272;22.658;2023-10-31T03:47:33;1.37;;;0.80;;
7479;SDS011;3781;42.272;22.658;2023-10-31T03:50:01;0.73;;;0.73;;
7479;SDS011;3781;42.272;22.658;2023-10-31T03:52:28;0.77;;;0.77;;
7479;SDS011;3781;42.272;22.658;2023-10-31T03:54:55;2.37;;;0.53;;
7479;SDS011;3781;42.272;22.658;2023-10-31T03:57:21;0.93;;;0.93;;
7479;SDS011;3781;42.272;22.658;2023-10-31T03:59:48;1.67;;;0.33;;
7479;SDS011;3781;42.272;22.658;2023-10-31T04:02:15;0.93;;;0.80;;
7479;SDS011;3781;42.272;22.658;2023-10-31T04:04:42;4.47;;;1.07;;
7479;SDS011;3781;42.272;22.658;2023-10-31T04:07:10;0.40;;;0.40;;
7479;SDS011;3781;42.272;22.658;2023-10-31T04:09:36;0.40;;;0.30;;
7479;SDS011;3781;42.272;22.658;2023-10-31T04:12:03;0.50;;;0.50;;
7479;SDS011;3781;42.272;22.658;2023-10-31T04:14:31;0.43;;;0.43;;
7479;SDS011;3781;42.272;22.658;2023-10-31T04:16:57;0.60;;;0.60;;
7479;SDS011;3781;42.272;22.658;2023-10-31T04:19:24;0.30;;;0.30;;
7479;SDS011;3781;42.272;22.658;2023-10-31T04:21:52;0.50;;;0.50;;
7479;SDS011;3781;42.272;22.658;2023-10-31T04:24:21;0.60;;;0.60;;
7479;SDS011;3781;42.272;22.658;2023-10-31T04:26:48;5.60;;;0.60;;
7479;SDS011;3781;42.272;22.658;2023-10-31T04:29:14;1.43;;;1.37;;
7479;SDS011;3781;42.272;22.658;2023-10-31T04:31:41;2.07;;;0.53;;
7479;SDS011;3781;42.272;22.658;2023-10-31T04:34:08;1.27;;;0.77;;
7479;SDS011;3781;42.272;22.658;2023-10-31T04:36:34;0.40;;;0.40;;
7479;SDS011;3781;42.272;22.658;2023-10-31T04:39:01;0.23;;;0.23;;
7479;SDS011;3781;42.272;22.658;2023-10-31T04:41:29;0.47;;;0.37;;
7479;SDS011;3781;42.272;22.658;2023-10-31T04:43:56;0.30;;;0.30;;
7479;SDS011;3781;42.272;22.658;2023-10-31T04:46:24;0.80;;;0.40;;
7479;SDS011;3781;42.272;22.658;2023-10-31T04:48:52;0.80;;;0.67;;
7479;SDS011;3781;42.272;22.658;2023-10-31T04:51:18;0.13;;;0.13;;
7479;SDS011;3781;42.272;22.658;2023-10-31T04:53:45;0.30;;;0.30;;
7479;SDS011;3781;42.272;22.658;2023-10-31T04:56:12;0.40;;;0.40;;
7479;SDS011;3781;42.272;22.658;2023-10-31T04:58:41;0.70;;;0.60;;
7479;SDS011;3781;42.272;22.658;2023-10-31T05:01:08;2.53;;;0.70;;
7479;SDS011;3781;42.272;22.658;2023-10-31T05:03:35;0.70;;;0.50;;
7479;SDS011;3781;42.272;22.658;2023-10-31T05:06:01;0.10;;;0.10;;
7479;SDS011;3781;42.272;22.658;2023-10-31T05:08:28;2.03;;;0.67;;
7479;SDS011;3781;42.272;22.658;2023-10-31T05:10:55;1.53;;;0.90;;
7479;SDS011;3781;42.272;22.658;2023-10-31T05:13:23;1.10;;;0.40;;
7479;SDS011;3781;42.272;22.658;2023-10-31T05:15:51;0.60;;;0.60;;
7479;SDS011;3781;42.272;22.658;2023-10-31T05:18:18;0.23;;;0.23;;
7479;SDS011;3781;42.272;22.658;2023-10-31T05:20:45;0.63;;;0.63;;
7479;SDS011;3781;42.272;22.658;2023-10-31T05:23:11;0.73;;;0.73;;
7479;SDS011;3781;42.272;22.658;2023-10-31T05:25:38;1.17;;;0.50;;
7479;SDS011;3781;42.272;22.658;2023-10-31T05:28:05;3.00;;;1.00;;
7479;SDS011;3781;42.272;22.658;2023-10-31T05:30:32;0.33;;;0.33;;
7479;SDS011;3781;42.272;22.658;2023-10-31T05:33:00;0.87;;;0.87;;
7479;SDS011;3781;42.272;22.658;2023-10-31T05:35:27;2.43;;;1.30;;
7479;SDS011;3781;42.272;22.658;2023-10-31T05:37:53;1.80;;;1.27;;
7479;SDS011;3781;42.272;22.658;2023-10-31T05:40:20;1.40;;;1.40;;
7479;SDS011;3781;42.272;22.658;2023-10-31T05:42:49;1.30;;;0.93;;
7479;SDS011;3781;42.272;22.658;2023-10-31T05:45:16;0.53;;;0.40;;
7479;SDS011;3781;42.272;22.658;2023-10-31T05:47:43;1.03;;;0.90;;
7479;SDS011;3781;42.272;22.658;2023-10-31T05:50:14;2.33;;;0.93;;
7479;SDS011;3781;42.272;22.658;2023-10-31T05:52:40;1.03;;;1.00;;
7479;SDS011;3781;42.272;22.658;2023-10-31T05:55:07;1.07;;;0.93;;
7479;SDS011;3781;42.272;22.658;2023-10-31T05:57:37;2.37;;;1.27;;
7479;SDS011;3781;42.272;22.658;2023-10-31T06:00:05;1.30;;;0.80;;
7479;SDS011;3781;42.272;22.658;2023-10-31T06:02:32;2.03;;;0.93;;
7479;SDS011;3781;42.272;22.658;2023-10-31T06:04:59;1.03;;;0.97;;
7479;SDS011;3781;42.272;22.658;2023-10-31T06:07:27;3.70;;;1.70;;
7479;SDS011;3781;42.272;22.658;2023-10-31T06:09:54;2.13;;;1.93;;
7479;SDS011;3781;42.272;22.658;2023-10-31T06:12:20;3.37;;;1.87;;
7479;SDS011;3781;42.272;22.658;2023-10-31T06:14:47;3.60;;;1.47;;
7479;SDS011;3781;42.272;22.658;2023-10-31T06:17:14;3.33;;;2.00;;
7479;SDS011;3781;42.272;22.658;2023-10-31T06:19:41;2.27;;;2.10;;
7479;SDS011;3781;42.272;22.658;2023-10-31T06:22:10;1.83;;;1.73;;
7479;SDS011;3781;42.272;22.658;2023-10-31T06:24:38;3.40;;;2.27;;
7479;SDS011;3781;42.272;22.658;2023-10-31T06:27:06;2.57;;;1.97;;
7479;SDS011;3781;42.272;22.658;2023-10-31T06:29:33;2.57;;;2.03;;
7479;SDS011;3781;42.272;22.658;2023-10-31T06:31:59;1.60;;;1.43;;
7479;SDS011;3781;42.272;22.658;2023-10-31T06:34:26;1.50;;;1.40;;
7479;SDS011;3781;42.272;22.658;2023-10-31T06:36:54;1.90;;;1.77;;
7479;SDS011;3781;42.272;22.658;2023-10-31T06:39:21;2.43;;;1.60;;
7479;SDS011;3781;42.272;22.658;2023-10-31T06:41:50;3.20;;;1.77;;
7479;SDS011;3781;42.272;22.658;2023-10-31T06:44:20;2.17;;;1.50;;
7479;SDS011;3781;42.272;22.658;2023-10-31T06:46:47;6.40;;;3.03;;
7479;SDS011;3781;42.272;22.658;2023-10-31T06:49:14;4.17;;;2.53;;
7479;SDS011;3781;42.272;22.658;2023-10-31T06:51:40;15.20;;;5.83;;
7479;SDS011;3781;42.272;22.658;2023-10-31T06:54:07;8.63;;;3.87;;
7479;SDS011;3781;42.272;22.658;2023-10-31T06:56:34;5.13;;;2.73;;
7479;SDS011;3781;42.272;22.658;2023-10-31T06:59:02;5.30;;;2.47;;
7479;SDS011;3781;42.272;22.658;2023-10-31T07:01:29;3.83;;;2.77;;
7479;SDS011;3781;42.272;22.658;2023-10-31T07:03:56;4.37;;;2.93;;
7479;SDS011;3781;42.272;22.658;2023-10-31T07:06:23;4.40;;;3.27;;
7479;SDS011;3781;42.272;22.658;2023-10-31T07:08:50;4.13;;;2.90;;
7479;SDS011;3781;42.272;22.658;2023-10-31T07:11:16;6.30;;;2.90;;
7479;SDS011;3781;42.272;22.658;2023-10-31T07:13:43;6.73;;;2.97;;
7479;SDS011;3781;42.272;22.658;2023-10-31T07:16:11;4.47;;;2.43;;
7479;SDS011;3781;42.272;22.658;2023-10-31T07:18:38;6.67;;;3.30;;
7479;SDS011;3781;42.272;22.658;2023-10-31T07:21:05;11.10;;;5.37;;
7479;SDS011;3781;42.272;22.658;2023-10-31T07:23:32;11.53;;;5.20;;
7479;SDS011;3781;42.272;22.658;2023-10-31T07:25:59;4.97;;;4.23;;
7479;SDS011;3781;42.272;22.658;2023-10-31T07:28:25;6.33;;;4.00;;
7479;SDS011;3781;42.272;22.658;2023-10-31T07:30:52;13.47;;;5.93;;
7479;SDS011;3781;42.272;22.658;2023-10-31T07:33:20;7.83;;;2.80;;
7479;SDS011;3781;42.272;22.658;2023-10-31T07:35:47;2.60;;;2.20;;
7479;SDS011;3781;42.272;22.658;2023-10-31T07:38:14;4.40;;;1.90;;
7479;SDS011;3781;42.272;22.658;2023-10-31T07:40:41;2.60;;;1.70;;
7479;SDS011;3781;42.272;22.658;2023-10-31T07:43:07;3.17;;;2.80;;
7479;SDS011;3781;42.272;22.658;2023-10-31T07:45:34;2.97;;;2.37;;
7479;SDS011;3781;42.272;22.658;2023-10-31T07:48:01;6.37;;;2.70;;
7479;SDS011;3781;42.272;22.658;2023-10-31T07:50:30;4.53;;;3.47;;
7479;SDS011;3781;42.272;22.658;2023-10-31T07:52:57;7.97;;;2.73;;
7479;SDS011;3781;42.272;22.658;2023-10-31T07:55:24;4.93;;;3.03;;
7479;SDS011;3781;42.272;22.658;2023-10-31T07:57:51;5.70;;;3.17;;
7479;SDS011;3781;42.272;22.658;2023-10-31T08:00:18;6.93;;;2.87;;
7479;SDS011;3781;42.272;22.658;2023-10-31T08:02:46;5.50;;;3.30;;
7479;SDS011;3781;42.272;22.658;2023-10-31T08:05:13;3.80;;;2.77;;
7479;SDS011;3781;42.272;22.658;2023-10-31T08:07:42;3.50;;;2.83;;
7479;SDS011;3781;42.272;22.658;2023-10-31T08:10:09;3.83;;;2.63;;
7479;SDS011;3781;42.272;22.658;2023-10-31T08:12:36;6.40;;;3.03;;
7479;SDS011;3781;42.272;22.658;2023-10-31T08:15:03;4.40;;;3.37;;
7479;SDS011;3781;42.272;22.658;2023-10-31T08:17:31;5.00;;;3.53;;
7479;SDS011;3781;42.272;22.658;2023-10-31T08:19:57;6.90;;;4.53;;
7479;SDS011;3781;42.272;22.658;2023-10-31T08:22:24;3.87;;;3.50;;
7479;SDS011;3781;42.272;22.658;2023-10-31T08:24:52;6.37;;;4.03;;
7479;SDS011;3781;42.272;22.658;2023-10-31T08:27:19;6.43;;;3.70;;
7479;SDS011;3781;42.272;22.658;2023-10-31T08:29:46;6.37;;;4.23;;
7479;SDS011;3781;42.272;22.658;2023-10-31T08:32:13;6.37;;;4.43;;
7479;SDS011;3781;42.272;22.658;2023-10-31T08:34:41;8.77;;;5.63;;
7479;SDS011;3781;42.272;22.658;2023-10-31T08:37:08;9.87;;;5.57;;
7479;SDS011;3781;42.272;22.658;2023-10-31T08:39:34;8.03;;;5.67;;
7479;SDS011;3781;42.272;22.658;2023-10-31T08:42:03;9.73;;;5.97;;
7479;SDS011;3781;42.272;22.658;2023-10-31T08:44:30;13.47;;;4.57;;
7479;SDS011;3781;42.272;22.658;2023-10-31T08:46:58;8.70;;;4.40;;
7479;SDS011;3781;42.272;22.658;2023-10-31T08:49:25;9.37;;;5.27;;
7479;SDS011;3781;42.272;22.658;2023-10-31T08:51:52;5.63;;;3.67;;
7479;SDS011;3781;42.272;22.658;2023-10-31T08:54:18;5.63;;;3.63;;
7479;SDS011;3781;42.272;22.658;2023-10-31T08:56:45;3.90;;;3.30;;
7479;SDS011;3781;42.272;22.658;2023-10-31T08:59:13;8.90;;;3.73;;
7479;SDS011;3781;42.272;22.658;2023-10-31T09:01:40;4.90;;;3.73;;
7479;SDS011;3781;42.272;22.658;2023-10-31T09:04:07;4.07;;;3.27;;
7479;SDS011;3781;42.272;22.658;2023-10-31T09:06:34;7.27;;;3.37;;
7479;SDS011;3781;42.272;22.658;2023-10-31T09:09:05;5.37;;;3.13;;
7479;SDS011;3781;42.272;22.658;2023-10-31T09:11:35;4.87;;;2.67;;
7479;SDS011;3781;42.272;22.658;2023-10-31T09:14:07;2.67;;;2.43;;
7479;SDS011;3781;42.272;22.658;2023-10-31T09:16:37;3.13;;;2.37;;
7479;SDS011;3781;42.272;22.658;2023-10-31T09:19:07;4.83;;;2.93;;
7479;SDS011;3781;42.272;22.658;2023-10-31T09:21:34;3.60;;;3.30;;
7479;SDS011;3781;42.272;22.658;2023-10-31T09:24:02;3.83;;;2.97;;
7479;SDS011;3781;42.272;22.658;2023-10-31T09:26:29;4.53;;;3.55;;
7479;SDS011;3781;42.272;22.658;2023-10-31T09:28:56;5.70;;;3.20;;
7479;SDS011;3781;42.272;22.658;2023-10-31T09:31:22;2.63;;;2.17;;
7479;SDS011;3781;42.272;22.658;2023-10-31T09:33:50;2.33;;;1.93;;
7479;SDS011;3781;42.272;22.658;2023-10-31T09:36:19;2.50;;;1.50;;
7479;SDS011;3781;42.272;22.658;2023-10-31T09:38:45;2.27;;;1.80;;
7479;SDS011;3781;42.272;22.658;2023-10-31T09:41:12;2.83;;;2.10;;
7479;SDS011;3781;42.272;22.658;2023-10-31T09:43:39;2.13;;;1.38;;
7479;SDS011;3781;42.272;22.658;2023-10-31T09:46:07;1.52;;;1.42;;
7479;SDS011;3781;42.272;22.658;2023-10-31T09:48:35;2.27;;;2.07;;
7479;SDS011;3781;42.272;22.658;2023-10-31T09:51:03;3.20;;;1.40;;
7479;SDS011;3781;42.272;22.658;2023-10-31T09:53:32;2.17;;;1.50;;
7479;SDS011;3781;42.272;22.658;2023-10-31T09:56:03;2.50;;;1.30;;
7479;SDS011;3781;42.272;22.658;2023-10-31T09:58:31;1.33;;;1.23;;
7479;SDS011;3781;42.272;22.658;2023-10-31T10:00:58;2.90;;;2.23;;
7479;SDS011;3781;42.272;22.658;2023-10-31T10:03:25;2.33;;;1.40;;
7479;SDS011;3781;42.272;22.658;2023-10-31T10:05:53;3.37;;;2.17;;
7479;SDS011;3781;42.272;22.658;2023-10-31T10:08:21;2.77;;;1.80;;
7479;SDS011;3781;42.272;22.658;2023-10-31T10:10:49;7.97;;;3.77;;
7479;SDS011;3781;42.272;22.658;2023-10-31T10:13:17;2.63;;;1.80;;
7479;SDS011;3781;42.272;22.658;2023-10-31T10:15:44;2.43;;;1.87;;
7479;SDS011;3781;42.272;22.658;2023-10-31T10:18:23;6.23;;;1.70;;
7479;SDS011;3781;42.272;22.658;2023-10-31T10:20:54;6.57;;;1.63;;
7479;SDS011;3781;42.272;22.658;2023-10-31T10:23:23;4.17;;;1.80;;
7479;SDS011;3781;42.272;22.658;2023-10-31T10:25:50;4.77;;;2.07;;
7479;SDS011;3781;42.272;22.658;2023-10-31T10:28:17;5.43;;;1.73;;
7479;SDS011;3781;42.272;22.658;2023-10-31T10:30:45;5.33;;;1.97;;
7479;SDS011;3781;42.272;22.658;2023-10-31T10:33:12;2.90;;;1.70;;
7479;SDS011;3781;42.272;22.658;2023-10-31T10:35:39;4.47;;;2.90;;
7479;SDS011;3781;42.272;22.658;2023-10-31T10:38:06;2.53;;;1.50;;
7479;SDS011;3781;42.272;22.658;2023-10-31T10:40:38;3.27;;;1.70;;
7479;SDS011;3781;42.272;22.658;2023-10-31T10:43:08;3.83;;;1.67;;
7479;SDS011;3781;42.272;22.658;2023-10-31T10:45:41;2.83;;;1.63;;
7479;SDS011;3781;42.272;22.658;2023-10-31T10:48:10;3.10;;;1.57;;
7479;SDS011;3781;42.272;22.658;2023-10-31T10:50:41;2.60;;;1.43;;
7479;SDS011;3781;42.272;22.658;2023-10-31T10:53:12;2.23;;;1.47;;
7479;SDS011;3781;42.272;22.658;2023-10-31T10:55:45;3.43;;;1.50;;
7479;SDS011;3781;42.272;22.658;2023-10-31T10:58:19;1.60;;;1.40;;
7479;SDS011;3781;42.272;22.658;2023-10-31T11:00:54;3.60;;;1.73;;
7479;SDS011;3781;42.272;22.658;2023-10-31T11:03:21;5.03;;;1.57;;
7479;SDS011;3781;42.272;22.658;2023-10-31T11:05:50;4.93;;;1.40;;
7479;SDS011;3781;42.272;22.658;2023-10-31T11:08:17;4.07;;;1.87;;
7479;SDS011;3781;42.272;22.658;2023-10-31T11:10:47;1.77;;;1.63;;
7479;SDS011;3781;42.272;22.658;2023-10-31T11:13:15;2.40;;;1.87;;
7479;SDS011;3781;42.272;22.658;2023-10-31T11:15:42;2.80;;;1.40;;
7479;SDS011;3781;42.272;22.658;2023-10-31T11:18:10;2.27;;;1.63;;
7479;SDS011;3781;42.272;22.658;2023-10-31T11:20:37;2.90;;;1.60;;
7479;SDS011;3781;42.272;22.658;2023-10-31T11:23:06;1.20;;;1.13;;
7479;SDS011;3781;42.272;22.658;2023-10-31T11:25:32;2.27;;;1.73;;
7479;SDS011;3781;42.272;22.658;2023-10-31T11:28:13;3.37;;;1.50;;
7479;SDS011;3781;42.272;22.658;2023-10-31T11:30:41;2.67;;;1.63;;
7479;SDS011;3781;42.272;22.658;2023-10-31T11:33:11;1.47;;;1.20;;
7479;SDS011;3781;42.272;22.658;2023-10-31T11:35:39;2.77;;;1.63;;
7479;SDS011;3781;42.272;22.658;2023-10-31T11:38:07;1.80;;;1.37;;
7479;SDS011;3781;42.272;22.658;2023-10-31T11:40:36;3.00;;;2.03;;
7479;SDS011;3781;42.272;22.658;2023-10-31T11:43:04;3.33;;;1.97;;
7479;SDS011;3781;42.272;22.658;2023-10-31T11:45:35;4.43;;;1.80;;
7479;SDS011;3781;42.272;22.658;2023-10-31T11:48:03;1.27;;;1.17;;
7479;SDS011;3781;42.272;22.658;2023-10-31T11:50:30;1.40;;;1.03;;
7479;SDS011;3781;42.272;22.658;2023-10-31T11:52:58;3.00;;;1.67;;
7479;SDS011;3781;42.272;22.658;2023-10-31T11:55:30;1.73;;;1.57;;
7479;SDS011;3781;42.272;22.658;2023-10-31T11:57:58;2.33;;;1.90;;
7479;SDS011;3781;42.272;22.658;2023-10-31T12:00:25;2.80;;;1.47;;
7479;SDS011;3781;42.272;22.658;2023-10-31T12:03:02;1.90;;;1.73;;
7479;SDS011;3781;42.272;22.658;2023-10-31T12:05:29;2.33;;;1.73;;
7479;SDS011;3781;42.272;22.658;2023-10-31T12:07:56;6.23;;;2.20;;
7479;SDS011;3781;42.272;22.658;2023-10-31T12:10:23;2.80;;;1.93;;
7479;SDS011;3781;42.272;22.658;2023-10-31T12:12:52;3.33;;;1.60;;
7479;SDS011;3781;42.272;22.658;2023-10-31T12:15:19;4.20;;;1.73;;
7479;SDS011;3781;42.272;22.658;2023-10-31T12:17:46;2.90;;;1.63;;
7479;SDS011;3781;42.272;22.658;2023-10-31T12:20:14;3.23;;;1.57;;
7479;SDS011;3781;42.272;22.658;2023-10-31T12:22:42;1.30;;;0.97;;
7479;SDS011;3781;42.272;22.658;2023-10-31T12:25:09;2.27;;;1.37;;
7479;SDS011;3781;42.272;22.658;2023-10-31T12:27:44;3.90;;;2.10;;
7479;SDS011;3781;42.272;22.658;2023-10-31T12:30:12;16.43;;;5.03;;
7479;SDS011;3781;42.272;22.658;2023-10-31T12:32:40;75.13;;;21.17;;
7479;SDS011;3781;42.272;22.658;2023-10-31T12:35:08;27.47;;;8.20;;
7479;SDS011;3781;42.272;22.658;2023-10-31T12:37:42;10.83;;;4.10;;
7479;SDS011;3781;42.272;22.658;2023-10-31T12:40:11;5.77;;;2.00;;
7479;SDS011;3781;42.272;22.658;2023-10-31T12:42:41;5.22;;;2.78;;
7479;SDS011;3781;42.272;22.658;2023-10-31T12:45:09;3.83;;;1.60;;
7479;SDS011;3781;42.272;22.658;2023-10-31T12:47:37;5.07;;;1.25;;
7479;SDS011;3781;42.272;22.658;2023-10-31T12:50:05;3.10;;;1.67;;
7479;SDS011;3781;42.272;22.658;2023-10-31T12:55:17;3.38;;;1.52;;
7479;SDS011;3781;42.272;22.658;2023-10-31T12:57:45;2.05;;;0.90;;
7479;SDS011;3781;42.272;22.658;2023-10-31T13:00:13;1.30;;;1.17;;
7479;SDS011;3781;42.272;22.658;2023-10-31T13:02:41;2.80;;;1.75;;
7479;SDS011;3781;42.272;22.658;2023-10-31T13:05:10;1.35;;;1.25;;
7479;SDS011;3781;42.272;22.658;2023-10-31T13:07:37;4.22;;;2.25;;
7479;SDS011;3781;42.272;22.658;2023-10-31T13:10:06;4.50;;;1.83;;
7479;SDS011;3781;42.272;22.658;2023-10-31T13:12:35;2.67;;;1.47;;
7479;SDS011;3781;42.272;22.658;2023-10-31T13:15:02;4.50;;;1.83;;
7479;SDS011;3781;42.272;22.658;2023-10-31T13:17:30;2.73;;;1.43;;
7479;SDS011;3781;42.272;22.658;2023-10-31T13:19:57;4.97;;;2.23;;
7479;SDS011;3781;42.272;22.658;2023-10-31T13:22:24;7.07;;;2.23;;
7479;SDS011;3781;42.272;22.658;2023-10-31T13:24:51;12.27;;;2.80;;
7479;SDS011;3781;42.272;22.658;2023-10-31T13:27:19;5.07;;;1.93;;
7479;SDS011;3781;42.272;22.658;2023-10-31T13:29:46;4.73;;;2.40;;
7479;SDS011;3781;42.272;22.658;2023-10-31T13:32:14;5.13;;;2.70;;
7479;SDS011;3781;42.272;22.658;2023-10-31T13:34:42;4.60;;;2.27;;
7479;SDS011;3781;42.272;22.658;2023-10-31T13:37:08;4.10;;;2.63;;
7479;SDS011;3781;42.272;22.658;2023-10-31T13:39:35;4.30;;;2.17;;
7479;SDS011;3781;42.272;22.658;2023-10-31T13:42:03;10.40;;;2.10;;
7479;SDS011;3781;42.272;22.658;2023-10-31T13:44:31;4.27;;;2.07;;
7479;SDS011;3781;42.272;22.658;2023-10-31T13:46:58;9.63;;;3.57;;
7479;SDS011;3781;42.272;22.658;2023-10-31T13:49:26;7.43;;;3.30;;
7479;SDS011;3781;42.272;22.658;2023-10-31T13:51:52;6.90;;;2.63;;
7479;SDS011;3781;42.272;22.658;2023-10-31T13:54:19;6.40;;;2.37;;
7479;SDS011;3781;42.272;22.658;2023-10-31T13:56:46;10.53;;;2.67;;
7479;SDS011;3781;42.272;22.658;2023-10-31T13:59:13;3.10;;;2.37;;
7479;SDS011;3781;42.272;22.658;2023-10-31T14:01:41;2.23;;;1.73;;
7479;SDS011;3781;42.272;22.658;2023-10-31T14:04:09;1.57;;;1.00;;
7479;SDS011;3781;42.272;22.658;2023-10-31T14:06:38;0.87;;;0.87;;
7479;SDS011;3781;42.272;22.658;2023-10-31T14:09:05;2.43;;;1.27;;
7479;SDS011;3781;42.272;22.658;2023-10-31T14:11:33;1.83;;;1.67;;
7479;SDS011;3781;42.272;22.658;2023-10-31T14:13:59;16.00;;;4.93;;
7479;SDS011;3781;42.272;22.658;2023-10-31T14:16:31;12.47;;;6.00;;
7479;SDS011;3781;42.272;22.658;2023-10-31T14:18:59;3.63;;;2.57;;
7479;SDS011;3781;42.272;22.658;2023-10-31T14:21:27;6.80;;;3.47;;
7479;SDS011;3781;42.272;22.658;2023-10-31T14:23:54;5.93;;;2.53;;
7479;SDS011;3781;42.272;22.658;2023-10-31T14:26:21;5.63;;;3.40;;
7479;SDS011;3781;42.272;22.658;2023-10-31T14:28:48;4.90;;;3.07;;
7479;SDS011;3781;42.272;22.658;2023-10-31T14:31:15;7.33;;;4.07;;
7479;SDS011;3781;42.272;22.658;2023-10-31T14:33:42;6.37;;;3.13;;
7479;SDS011;3781;42.272;22.658;2023-10-31T14:36:11;6.37;;;2.60;;
7479;SDS011;3781;42.272;22.658;2023-10-31T14:38:38;8.00;;;2.87;;
7479;SDS011;3781;42.272;22.658;2023-10-31T14:41:05;8.30;;;2.70;;
7479;SDS011;3781;42.272;22.658;2023-10-31T14:43:32;4.50;;;2.60;;
7479;SDS011;3781;42.272;22.658;2023-10-31T14:46:00;3.03;;;2.00;;
7479;SDS011;3781;42.272;22.658;2023-10-31T14:48:27;10.77;;;3.80;;
7479;SDS011;3781;42.272;22.658;2023-10-31T14:50:55;12.50;;;5.67;;
7479;SDS011;3781;42.272;22.658;2023-10-31T14:53:23;6.17;;;2.20;;
7479;SDS011;3781;42.272;22.658;2023-10-31T14:55:50;9.80;;;4.03;;
7479;SDS011;3781;42.272;22.658;2023-10-31T14:58:17;5.07;;;2.70;;
7479;SDS011;3781;42.272;22.658;2023-10-31T15:00:44;9.33;;;3.50;;
7479;SDS011;3781;42.272;22.658;2023-10-31T15:03:10;12.17;;;3.83;;
7479;SDS011;3781;42.272;22.658;2023-10-31T15:05:37;10.17;;;6.83;;